Time,TemperatureF,DewpointF,PressureIn,WindDirection,WindDirectionDegrees,WindSpeedMPH,WindSpeedGustMPH,Humidity,HourlyPrecipIn,Conditions,Clouds,dailyrainin,SoftwareType,DateUTC
2013-08-14 00:05:00,83.8,73.8,29.94,ESE,121,0.0,0.0,72,0.00,,,0.00,Wunderground v.1.15,2013-08-14 05:05:00,
2013-08-14 00:14:00,83.4,73.8,29.94,East,91,0.0,2.0,73,0.00,,,0.00,Wunderground v.1.15,2013-08-14 05:14:00,
2013-08-14 00:25:00,83.0,73.9,29.94,ESE,110,0.0,0.0,74,0.00,,,0.00,Wunderground v.1.15,2013-08-14 05:25:00,
2013-08-14 00:35:00,82.5,73.8,29.95,ESE,112,0.0,0.0,75,0.00,,,0.00,Wunderground v.1.15,2013-08-14 05:35:00,
2013-08-14 00:44:00,82.1,73.4,29.95,ESE,112,0.0,0.0,75,0.00,,,0.00,Wunderground v.1.15,2013-08-14 05:44:00,
2013-08-14 00:50:00,81.8,73.5,29.95,ESE,111,0.0,0.0,76,0.00,,,0.00,Wunderground v.1.15,2013-08-14 05:50:00,
2013-08-14 01:00:00,81.6,73.3,29.95,SSW,204,0.0,2.0,76,0.00,,,0.00,Wunderground v.1.15,2013-08-14 06:00:00,
2013-08-14 01:05:00,81.7,73.0,29.95,West,267,0.0,2.0,75,0.00,,,0.00,Wunderground v.1.15,2013-08-14 06:05:00,
2013-08-14 01:14:00,81.7,73.0,29.94,West,279,0.0,1.0,75,0.00,,,0.00,Wunderground v.1.15,2013-08-14 06:14:00,
2013-08-14 01:20:00,81.7,72.6,29.95,West,278,0.0,0.0,74,0.00,,,0.00,Wunderground v.1.15,2013-08-14 06:20:00,
2013-08-14 01:25:00,81.7,72.6,29.94,SE,130,0.0,0.0,74,0.00,,,0.00,Wunderground v.1.15,2013-08-14 06:25:00,
2013-08-14 01:35:00,81.3,72.6,29.94,SE,132,0.0,0.0,75,0.00,,,0.00,Wunderground v.1.15,2013-08-14 06:35:00,
2013-08-14 01:45:00,81.0,72.7,29.93,SW,229,0.0,1.0,76,0.00,,,0.00,Wunderground v.1.15,2013-08-14 06:45:00,
2013-08-14 01:55:00,80.8,72.5,29.93,SW,232,0.0,1.0,76,0.00,,,0.00,Wunderground v.1.15,2013-08-14 06:55:00,
2013-08-14 02:05:00,80.7,72.8,29.93,SSW,203,0.0,0.0,77,0.00,,,0.00,Wunderground v.1.15,2013-08-14 07:05:00,
2013-08-14 02:15:00,80.3,72.8,29.93,SSW,204,0.0,0.0,78,0.00,,,0.00,Wunderground v.1.15,2013-08-14 07:15:00,
2013-08-14 02:24:00,79.7,72.6,29.93,SSW,204,0.0,0.0,79,0.00,,,0.00,Wunderground v.1.15,2013-08-14 07:24:00,
2013-08-14 02:30:00,79.4,72.3,29.93,SSW,204,0.0,0.0,79,0.00,,,0.00,Wunderground v.1.15,2013-08-14 07:30:00,
2013-08-14 02:39:00,79.1,72.8,29.93,WSW,238,0.0,0.0,81,0.00,,,0.00,Wunderground v.1.15,2013-08-14 07:39:00,
2013-08-14 02:50:00,78.9,72.6,29.93,WSW,248,0.0,0.0,81,0.00,,,0.00,Wunderground v.1.15,2013-08-14 07:50:00,
2013-08-14 03:00:00,79.0,73.0,29.93,SSW,203,0.0,0.0,82,0.00,,,0.00,Wunderground v.1.15,2013-08-14 08:00:00,
2013-08-14 03:09:00,79.0,72.7,29.93,WSW,242,0.0,0.0,81,0.00,,,0.00,Wunderground v.1.15,2013-08-14 08:09:00,
2013-08-14 03:15:00,79.0,72.7,29.93,SW,229,0.0,2.0,81,0.00,,,0.00,Wunderground v.1.15,2013-08-14 08:15:00,
2013-08-14 03:25:00,79.0,72.7,29.93,SSW,198,1.0,1.0,81,0.00,,,0.00,Wunderground v.1.15,2013-08-14 08:25:00,
2013-08-14 03:35:00,78.9,72.6,29.93,WSW,248,0.0,1.0,81,0.00,,,0.00,Wunderground v.1.15,2013-08-14 08:35:00,
2013-08-14 03:40:00,78.9,72.9,29.93,WSW,245,0.0,0.0,82,0.00,,,0.00,Wunderground v.1.15,2013-08-14 08:40:00,
2013-08-14 03:50:00,78.8,72.8,29.93,WSW,243,0.0,0.0,82,0.00,,,0.00,Wunderground v.1.15,2013-08-14 08:50:00,
2013-08-14 03:59:00,78.7,73.1,29.93,WNW,291,0.0,1.0,83,0.00,,,0.00,Wunderground v.1.15,2013-08-14 08:59:00,
2013-08-14 04:09:00,78.8,73.2,29.94,SW,221,1.0,1.0,83,0.00,,,0.00,Wunderground v.1.15,2013-08-14 09:09:00,
2013-08-14 04:15:00,78.8,73.2,29.94,SW,228,1.0,1.0,83,0.00,,,0.00,Wunderground v.1.15,2013-08-14 09:15:00,
2013-08-14 04:25:00,78.7,73.5,29.94,WSW,240,1.0,1.0,84,0.00,,,0.00,Wunderground v.1.15,2013-08-14 09:25:00,
2013-08-14 04:34:00,78.5,73.3,29.94,SSW,207,1.0,1.0,84,0.00,,,0.00,Wunderground v.1.15,2013-08-14 09:34:00,
2013-08-14 04:40:00,78.4,73.5,29.93,West,262,1.0,1.0,85,0.00,,,0.00,Wunderground v.1.15,2013-08-14 09:40:00,
2013-08-14 04:50:00,78.2,73.3,29.93,SSW,198,0.0,0.0,85,0.00,,,0.00,Wunderground v.1.15,2013-08-14 09:50:00,
2013-08-14 04:59:00,78.0,73.5,29.93,WSW,238,1.0,1.0,86,0.00,,,0.00,Wunderground v.1.15,2013-08-14 09:59:00,
2013-08-14 05:10:00,77.8,73.6,29.94,WSW,238,0.0,0.0,87,0.00,,,0.00,Wunderground v.1.15,2013-08-14 10:10:00,
2013-08-14 05:20:00,77.5,73.3,29.94,ENE,74,0.0,0.0,87,0.00,,,0.00,Wunderground v.1.15,2013-08-14 10:20:00,
2013-08-14 05:29:00,77.2,73.4,29.95,South,180,0.0,0.0,88,0.00,,,0.00,Wunderground v.1.15,2013-08-14 10:29:00,
2013-08-14 05:35:00,77.0,73.2,29.95,South,181,0.0,0.0,88,0.00,,,0.00,Wunderground v.1.15,2013-08-14 10:35:00,
2013-08-14 05:45:00,76.6,73.1,29.94,South,181,0.0,0.0,89,0.00,,,0.00,Wunderground v.1.15,2013-08-14 10:45:00,
2013-08-14 05:54:00,76.2,72.7,29.95,South,181,0.0,0.0,89,0.00,,,0.00,Wunderground v.1.15,2013-08-14 10:54:00,
2013-08-14 06:00:00,76.1,73.0,29.95,South,191,0.0,0.0,90,0.00,,,0.00,Wunderground v.1.15,2013-08-14 11:00:00,
2013-08-14 06:05:00,76.0,72.9,29.95,South,191,0.0,0.0,90,0.00,,,0.00,Wunderground v.1.15,2013-08-14 11:05:00,
2013-08-14 06:10:00,76.0,73.2,29.95,WSW,252,0.0,0.0,91,0.00,,,0.00,Wunderground v.1.15,2013-08-14 11:10:00,
2013-08-14 06:20:00,76.1,73.3,29.95,SW,219,0.0,0.0,91,0.00,,,0.00,Wunderground v.1.15,2013-08-14 11:20:00,
2013-08-14 06:30:00,76.2,73.4,29.95,SSW,197,0.0,1.0,91,0.00,,,0.00,Wunderground v.1.15,2013-08-14 11:30:00,
2013-08-14 06:35:00,76.3,73.5,29.95,West,266,1.0,1.0,91,0.00,,,0.00,Wunderground v.1.15,2013-08-14 11:35:00,
2013-08-14 06:45:00,76.3,73.5,29.96,SSW,207,0.0,0.0,91,0.00,,,0.00,Wunderground v.1.15,2013-08-14 11:45:00,
2013-08-14 06:55:00,76.2,73.4,29.96,WSW,255,0.0,0.0,91,0.00,,,0.00,Wunderground v.1.15,2013-08-14 11:55:00,
2013-08-14 07:04:00,76.0,73.2,29.96,WSW,255,0.0,0.0,91,0.00,,,0.00,Wunderground v.1.15,2013-08-14 12:04:00,
2013-08-14 07:10:00,75.9,73.4,29.96,WSW,254,0.0,0.0,92,0.00,,,0.00,Wunderground v.1.15,2013-08-14 12:10:00,
2013-08-14 07:20:00,75.9,73.4,29.96,West,264,0.0,0.0,92,0.00,,,0.00,Wunderground v.1.15,2013-08-14 12:20:00,
2013-08-14 07:29:00,75.9,73.4,29.96,West,264,0.0,0.0,92,0.00,,,0.00,Wunderground v.1.15,2013-08-14 12:29:00,
2013-08-14 07:35:00,76.0,73.5,29.96,West,264,0.0,0.0,92,0.00,,,0.00,Wunderground v.1.15,2013-08-14 12:35:00,
2013-08-14 07:45:00,76.1,73.6,29.97,SW,236,0.0,0.0,92,0.00,,,0.00,Wunderground v.1.15,2013-08-14 12:45:00,
2013-08-14 07:54:00,76.4,73.9,29.97,SW,232,0.0,0.0,92,0.00,,,0.00,Wunderground v.1.15,2013-08-14 12:54:00,
2013-08-14 08:00:00,76.6,73.8,29.98,WSW,252,0.0,1.0,91,0.00,,,0.00,Wunderground v.1.15,2013-08-14 13:00:00,
2013-08-14 08:10:00,77.1,73.9,29.98,West,263,0.0,0.0,90,0.00,,,0.00,Wunderground v.1.15,2013-08-14 13:10:00,
2013-08-14 08:20:00,77.6,73.8,29.98,ENE,60,1.0,1.0,88,0.00,,,0.00,Wunderground v.1.15,2013-08-14 13:20:00,
2013-08-14 08:25:00,78.0,74.2,29.98,WSW,243,1.0,4.0,88,0.00,,,0.00,Wunderground v.1.15,2013-08-14 13:25:00,
2013-08-14 08:35:00,78.6,74.1,29.98,West,269,1.0,1.0,86,0.00,,,0.00,Wunderground v.1.15,2013-08-14 13:35:00,
2013-08-14 08:44:00,79.2,73.9,29.99,WSW,246,1.0,3.0,84,0.00,,,0.00,Wunderground v.1.15,2013-08-14 13:44:00,
2013-08-14 08:55:00,79.8,73.8,29.99,WSW,250,1.0,4.0,82,0.00,,,0.00,Wunderground v.1.15,2013-08-14 13:55:00,
2013-08-14 09:05:00,80.5,73.4,29.99,West,270,2.0,2.0,79,0.00,,,0.00,Wunderground v.1.15,2013-08-14 14:05:00,
2013-08-14 09:14:00,81.2,73.7,29.99,SW,220,2.0,2.0,78,0.00,,,0.00,Wunderground v.1.15,2013-08-14 14:14:00,
2013-08-14 09:19:00,81.6,73.7,30.00,ENE,58,2.0,2.0,77,0.00,,,0.00,Wunderground v.1.15,2013-08-14 14:19:00,
2013-08-14 09:25:00,81.8,73.9,30.00,South,190,1.0,2.0,77,0.00,,,0.00,Wunderground v.1.15,2013-08-14 14:25:00,
2013-08-14 09:35:00,82.4,73.3,30.00,WNW,302,2.0,2.0,74,0.00,,,0.00,Wunderground v.1.15,2013-08-14 14:35:00,
2013-08-14 09:44:00,83.0,73.9,29.99,WSW,253,2.0,4.0,74,0.00,,,0.00,Wunderground v.1.15,2013-08-14 14:44:00,
2013-08-14 09:50:00,83.2,72.8,30.00,NW,311,2.0,2.0,71,0.00,,,0.00,Wunderground v.1.15,2013-08-14 14:50:00,
2013-08-14 10:00:00,83.5,72.7,30.00,SW,233,3.0,3.0,70,0.00,,,0.00,Wunderground v.1.15,2013-08-14 15:00:00,
2013-08-14 10:09:00,84.3,72.6,29.99,WSW,253,2.0,2.0,68,0.00,,,0.00,Wunderground v.1.15,2013-08-14 15:09:00,
2013-08-14 10:15:00,84.5,72.8,29.99,SSW,198,3.0,3.0,68,0.00,,,0.00,Wunderground v.1.15,2013-08-14 15:15:00,
2013-08-14 10:25:00,85.2,73.0,29.99,West,274,2.0,3.0,67,0.00,,,0.00,Wunderground v.1.15,2013-08-14 15:25:00,
2013-08-14 10:34:00,85.6,71.6,29.99,WNW,302,3.0,3.0,63,0.00,,,0.00,Wunderground v.1.15,2013-08-14 15:34:00,
2013-08-14 10:40:00,85.8,71.7,29.99,West,269,3.0,3.0,63,0.00,,,0.00,Wunderground v.1.15,2013-08-14 15:40:00,
2013-08-14 10:50:00,86.2,72.1,29.99,WNW,293,3.0,3.0,63,0.00,,,0.00,Wunderground v.1.15,2013-08-14 15:50:00,
2013-08-14 10:59:00,86.8,72.2,29.99,South,187,2.0,2.0,62,0.00,,,0.00,Wunderground v.1.15,2013-08-14 15:59:00,
2013-08-14 11:05:00,87.1,72.5,29.99,SSW,210,1.0,2.0,62,0.00,,,0.00,Wunderground v.1.15,2013-08-14 16:05:00,
2013-08-14 11:15:00,88.1,72.5,29.99,SSW,198,2.0,2.0,60,0.00,,,0.00,Wunderground v.1.15,2013-08-14 16:15:00,
2013-08-14 11:24:00,88.3,73.1,29.99,West,273,2.0,4.0,61,0.00,,,0.00,Wunderground v.1.15,2013-08-14 16:24:00,
2013-08-14 11:30:00,88.7,73.0,29.98,West,264,2.0,2.0,60,0.00,,,0.00,Wunderground v.1.15,2013-08-14 16:30:00,
2013-08-14 11:40:00,89.2,72.0,29.98,SW,236,2.0,3.0,57,0.00,,,0.00,Wunderground v.1.15,2013-08-14 16:40:00,
2013-08-14 11:49:00,89.8,71.5,29.98,NNW,330,2.0,2.0,55,0.00,,,0.00,Wunderground v.1.15,2013-08-14 16:49:00,
2013-08-14 12:00:00,90.7,71.8,29.98,WSW,239,2.0,2.0,54,0.00,,,0.00,Wunderground v.1.15,2013-08-14 17:00:00,
2013-08-14 12:10:00,91.8,72.2,29.97,SSW,209,2.0,2.0,53,0.00,,,0.00,Wunderground v.1.15,2013-08-14 17:10:00,
2013-08-14 12:20:00,92.6,71.8,29.97,SE,127,1.0,1.0,51,0.00,,,0.00,Wunderground v.1.15,2013-08-14 17:20:00,
2013-08-14 12:29:00,93.0,72.2,29.97,SW,215,2.0,2.0,51,0.00,,,0.00,Wunderground v.1.15,2013-08-14 17:29:00,
2013-08-14 12:40:00,93.7,72.3,29.97,WSW,250,2.0,2.0,50,0.00,,,0.00,Wunderground v.1.15,2013-08-14 17:40:00,
2013-08-14 12:50:00,94.7,71.3,29.96,WNW,285,2.0,5.0,47,0.00,,,0.00,Wunderground v.1.15,2013-08-14 17:50:00,
2013-08-14 13:00:00,95.2,71.2,29.96,WNW,290,2.0,2.0,46,0.00,,,0.00,Wunderground v.1.15,2013-08-14 18:00:00,
2013-08-14 13:05:00,96.0,72.5,29.96,ESE,117,1.0,2.0,47,0.00,,,0.00,Wunderground v.1.15,2013-08-14 18:05:00,
2013-08-14 13:10:00,96.0,71.9,29.95,SW,236,1.0,1.0,46,0.00,,,0.00,Wunderground v.1.15,2013-08-14 18:10:00,
2013-08-14 13:20:00,96.8,71.3,29.95,WNW,302,1.0,1.0,44,0.00,,,0.00,Wunderground v.1.15,2013-08-14 18:20:00,
2013-08-14 13:25:00,96.8,72.0,29.95,NNW,347,2.0,4.0,45,0.00,,,0.00,Wunderground v.1.15,2013-08-14 18:25:00,
2013-08-14 13:34:00,96.7,71.2,29.95,South,172,2.0,2.0,44,0.00,,,0.00,Wunderground v.1.15,2013-08-14 18:34:00,
2013-08-14 13:39:00,97.2,71.0,29.94,NW,314,1.0,1.0,43,0.00,,,0.00,Wunderground v.1.15,2013-08-14 18:39:00,
2013-08-14 13:50:00,97.8,71.5,29.94,SSW,212,1.0,3.0,43,0.00,,,0.00,Wunderground v.1.15,2013-08-14 18:50:00,
2013-08-14 14:04:00,97.7,69.3,29.93,NNW,341,2.0,2.0,40,0.00,,,0.00,Wunderground v.1.15,2013-08-14 19:04:00,
2013-08-14 14:20:00,99.4,70.8,29.92,East,96,2.0,2.0,40,0.00,,,0.00,Wunderground v.1.15,2013-08-14 19:20:00,
2013-08-14 14:25:00,99.6,70.2,29.92,South,191,2.0,2.0,39,0.00,,,0.00,Wunderground v.1.15,2013-08-14 19:25:00,
2013-08-14 14:35:00,99.2,69.1,29.92,WSW,256,2.0,2.0,38,0.00,,,0.00,Wunderground v.1.15,2013-08-14 19:35:00,
2013-08-14 14:45:00,100.2,68.4,29.91,WSW,247,1.0,2.0,36,0.00,,,0.00,Wunderground v.1.15,2013-08-14 19:45:00,
2013-08-14 14:54:00,99.5,68.6,29.91,SW,228,2.0,3.0,37,0.00,,,0.00,Wunderground v.1.15,2013-08-14 19:54:00,
2013-08-14 15:05:00,100.3,69.3,29.90,SW,235,1.0,2.0,37,0.00,,,0.00,Wunderground v.1.15,2013-08-14 20:05:00,
2013-08-14 15:15:00,99.6,67.9,29.90,NW,317,2.0,4.0,36,0.00,,,0.00,Wunderground v.1.15,2013-08-14 20:15:00,
2013-08-14 15:30:00,100.0,69.1,29.89,WNW,295,2.0,2.0,37,0.00,,,0.00,Wunderground v.1.15,2013-08-14 20:30:00,
2013-08-14 15:35:00,100.7,68.0,29.89,SW,218,2.0,2.0,35,0.00,,,0.00,Wunderground v.1.15,2013-08-14 20:35:00,
2013-08-14 15:40:00,100.7,68.9,29.89,SW,218,1.0,1.0,36,0.00,,,0.00,Wunderground v.1.15,2013-08-14 20:40:00,
2013-08-14 15:50:00,101.9,69.1,29.89,East,101,1.0,3.0,35,0.00,,,0.00,Wunderground v.1.15,2013-08-14 20:50:00,
2013-08-14 16:00:00,102.2,67.6,29.89,SSW,200,1.0,1.0,33,0.00,,,0.00,Wunderground v.1.15,2013-08-14 21:00:00,
2013-08-14 16:09:00,102.9,68.3,29.88,SSW,210,1.0,2.0,33,0.00,,,0.00,Wunderground v.1.15,2013-08-14 21:09:00,
2013-08-14 16:15:00,102.3,65.9,29.88,East,82,2.0,3.0,31,0.00,,,0.00,Wunderground v.1.15,2013-08-14 21:15:00,
2013-08-14 16:25:00,102.8,66.4,29.87,ESE,112,2.0,2.0,31,0.00,,,0.00,Wunderground v.1.15,2013-08-14 21:25:00,
2013-08-14 16:35:00,103.4,65.9,29.87,WNW,288,1.0,3.0,30,0.00,,,0.00,Wunderground v.1.15,2013-08-14 21:35:00,
2013-08-14 16:49:00,103.9,65.4,29.86,SSW,200,1.0,1.0,29,0.00,,,0.00,Wunderground v.1.15,2013-08-14 21:49:00,
2013-08-14 17:00:00,102.9,63.5,29.86,WSW,241,2.0,2.0,28,0.00,,,0.00,Wunderground v.1.15,2013-08-14 22:00:00,
2013-08-14 17:10:00,102.6,64.3,29.86,SW,226,1.0,1.0,29,0.00,,,0.00,Wunderground v.1.15,2013-08-14 22:10:00,
2013-08-14 17:19:00,102.6,64.3,29.86,SW,229,1.0,1.0,29,0.00,,,0.00,Wunderground v.1.15,2013-08-14 22:19:00,
2013-08-14 17:30:00,102.8,65.4,29.85,ESE,114,1.0,1.0,30,0.00,,,0.00,Wunderground v.1.15,2013-08-14 22:30:00,
2013-08-14 17:40:00,102.8,63.4,29.86,SE,134,1.0,1.0,28,0.00,,,0.00,Wunderground v.1.15,2013-08-14 22:40:00,
2013-08-14 17:45:00,102.7,63.3,29.86,SSE,148,1.0,2.0,28,0.00,,,0.00,Wunderground v.1.15,2013-08-14 22:45:00,
2013-08-14 17:54:00,102.1,62.8,29.86,WSW,257,1.0,1.0,28,0.00,,,0.00,Wunderground v.1.15,2013-08-14 22:54:00,
2013-08-14 18:00:00,101.7,63.5,29.85,East,98,1.0,2.0,29,0.00,,,0.00,Wunderground v.1.15,2013-08-14 23:00:00,
2013-08-14 18:05:00,101.1,63.0,29.85,East,86,1.0,2.0,29,0.00,,,0.00,Wunderground v.1.15,2013-08-14 23:05:00,
2013-08-14 18:15:00,101.3,65.1,29.85,SE,129,0.0,2.0,31,0.00,,,0.00,Wunderground v.1.15,2013-08-14 23:15:00,
2013-08-14 18:24:00,101.0,64.8,29.85,SW,214,1.0,1.0,31,0.00,,,0.00,Wunderground v.1.15,2013-08-14 23:24:00,
2013-08-14 18:30:00,101.0,64.8,29.85,East,99,0.0,1.0,31,0.00,,,0.00,Wunderground v.1.15,2013-08-14 23:30:00,
2013-08-14 18:39:00,100.6,63.5,29.84,West,278,0.0,0.0,30,0.00,,,0.00,Wunderground v.1.15,2013-08-14 23:39:00,
2013-08-14 18:50:00,99.8,63.8,29.84,West,280,0.0,0.0,31,0.00,,,0.00,Wunderground v.1.15,2013-08-14 23:50:00,
2013-08-14 19:00:00,99.2,64.2,29.84,West,279,0.0,0.0,32,0.00,,,0.00,Wunderground v.1.15,2013-08-15 00:00:00,
2013-08-14 19:09:00,98.3,68.3,29.85,NW,319,1.0,2.0,38,0.00,,,0.00,Wunderground v.1.15,2013-08-15 00:09:00,
2013-08-14 19:15:00,96.8,70.6,29.85,NE,56,2.0,4.0,43,0.00,,,0.00,Wunderground v.1.15,2013-08-15 00:15:00,
2013-08-14 19:25:00,94.9,71.5,29.85,ENE,70,2.0,2.0,47,0.00,,,0.00,Wunderground v.1.15,2013-08-15 00:25:00,
2013-08-14 19:34:00,93.5,70.9,29.86,ESE,102,2.0,2.0,48,0.00,,,0.00,Wunderground v.1.15,2013-08-15 00:34:00,
2013-08-14 19:40:00,92.9,70.9,29.85,SE,134,2.0,2.0,49,0.00,,,0.00,Wunderground v.1.15,2013-08-15 00:40:00,
2013-08-14 19:50:00,91.7,70.4,29.85,ENE,61,2.0,2.0,50,0.00,,,0.00,Wunderground v.1.15,2013-08-15 00:50:00,
2013-08-14 19:59:00,90.6,70.6,29.86,ESE,107,1.0,1.0,52,0.00,,,0.00,Wunderground v.1.15,2013-08-15 00:59:00,
2013-08-14 20:10:00,89.7,70.8,29.86,East,86,1.0,1.0,54,0.00,,,0.00,Wunderground v.1.15,2013-08-15 01:10:00,
2013-08-14 20:19:00,89.0,70.7,29.87,ESE,108,1.0,1.0,55,0.00,,,0.00,Wunderground v.1.15,2013-08-15 01:19:00,
2013-08-14 20:30:00,88.5,70.8,29.88,NE,37,1.0,1.0,56,0.00,,,0.00,Wunderground v.1.15,2013-08-15 01:30:00,
2013-08-14 20:39:00,87.9,70.2,29.88,NE,51,1.0,1.0,56,0.00,,,0.00,Wunderground v.1.15,2013-08-15 01:39:00,
2013-08-14 20:45:00,87.7,70.6,29.88,ENE,75,1.0,1.0,57,0.00,,,0.00,Wunderground v.1.15,2013-08-15 01:45:00,
2013-08-14 20:55:00,87.2,70.6,29.89,NE,52,2.0,2.0,58,0.00,,,0.00,Wunderground v.1.15,2013-08-15 01:55:00,
2013-08-14 21:04:00,86.8,70.8,29.89,North,352,2.0,2.0,59,0.00,,,0.00,Wunderground v.1.15,2013-08-15 02:04:00,
2013-08-14 21:10:00,86.5,71.0,29.90,NW,308,2.0,2.0,60,0.00,,,0.00,Wunderground v.1.15,2013-08-15 02:10:00,
2013-08-14 21:20:00,86.2,70.7,29.91,NE,38,2.0,2.0,60,0.00,,,0.00,Wunderground v.1.15,2013-08-15 02:20:00,
2013-08-14 21:29:00,85.8,70.8,29.91,ESE,110,1.0,1.0,61,0.00,,,0.00,Wunderground v.1.15,2013-08-15 02:29:00,
2013-08-14 21:35:00,85.6,70.6,29.91,NE,53,1.0,2.0,61,0.00,,,0.00,Wunderground v.1.15,2013-08-15 02:35:00,
2013-08-14 21:45:00,85.4,70.9,29.92,ESE,108,1.0,1.0,62,0.00,,,0.00,Wunderground v.1.15,2013-08-15 02:45:00,
2013-08-14 21:54:00,85.2,70.7,29.92,ENE,70,1.0,1.0,62,0.00,,,0.00,Wunderground v.1.15,2013-08-15 02:54:00,
2013-08-14 22:05:00,85.1,70.6,29.93,ESE,103,2.0,2.0,62,0.00,,,0.00,Wunderground v.1.15,2013-08-15 03:05:00,
2013-08-14 22:14:00,85.0,70.5,29.93,NNE,20,2.0,3.0,62,0.00,,,0.00,Wunderground v.1.15,2013-08-15 03:14:00,
2013-08-14 22:25:00,84.9,70.9,29.94,ESE,119,1.0,1.0,63,0.00,,,0.00,Wunderground v.1.15,2013-08-15 03:25:00,
2013-08-14 22:35:00,84.9,70.9,29.95,East,97,2.0,5.0,63,0.00,,,0.00,Wunderground v.1.15,2013-08-15 03:35:00,
2013-08-14 22:44:00,84.8,71.3,29.95,SE,131,2.0,2.0,64,0.00,,,0.00,Wunderground v.1.15,2013-08-15 03:44:00,
2013-08-14 22:55:00,84.5,71.4,29.95,NE,40,1.0,2.0,65,0.00,,,0.00,Wunderground v.1.15,2013-08-15 03:55:00,
2013-08-14 23:04:00,84.3,71.2,29.95,East,86,1.0,2.0,65,0.00,,,0.00,Wunderground v.1.15,2013-08-15 04:04:00,
2013-08-14 23:14:00,84.0,71.4,29.95,SE,128,1.0,1.0,66,0.00,,,0.00,Wunderground v.1.15,2013-08-15 04:14:00,
2013-08-14 23:20:00,83.9,71.3,29.95,SE,128,1.0,1.0,66,0.00,,,0.00,Wunderground v.1.15,2013-08-15 04:20:00,
2013-08-14 23:25:00,83.8,71.7,29.95,ENE,72,1.0,2.0,67,0.00,,,0.00,Wunderground v.1.15,2013-08-15 04:25:00,
2013-08-14 23:34:00,83.7,71.6,29.96,ESE,118,1.0,1.0,67,0.00,,,0.00,Wunderground v.1.15,2013-08-15 04:34:00,
2013-08-14 23:39:00,83.6,71.5,29.95,SE,131,1.0,2.0,67,0.00,,,0.00,Wunderground v.1.15,2013-08-15 04:39:00,
2013-08-14 23:45:00,83.5,71.4,29.95,ENE,76,1.0,2.0,67,0.00,,,0.00,Wunderground v.1.15,2013-08-15 04:45:00,
2013-08-14 23:54:00,83.4,71.3,29.95,NE,34,1.0,1.0,67,0.00,,,0.00,Wunderground v.1.15,2013-08-15 04:54:00,
2013-08-14 23:59:00,83.4,71.3,29.95,NNW,340,1.0,1.0,67,0.00,,,0.00,Wunderground v.1.15,2013-08-15 04:59:00,